UKBBLGRP

Guest
Details From UKBB - Boryspil
To LGRP - Diagoras
Flight Number -
Tags Generated
Created
Modified
Stats Distance 848 nm / 1,570 km
Max Altitude 0 ft / 0 m
Waypoints 4
Social Downloads 0
Likes 0
Share VATSIM

Download

Looking for another format? Having issues loading an existing format? Contact us
Advertisement - Login to hide

Notes

Generated

Route

UKBB ERMAN PAR LGRP

ID Type Via Altitude Latitude Longitude Leg Dist Tot Dist Heading (true) Name
O UKBB APT - 0 ft / 0 m 50.36056˚ 30.90660˚ - 0 nm - -
ERMAN FIX - 0 ft / 0 m 40.79472˚ 28.80917˚ 581 nm 581 nm 189° / 188° -
PAR VOR - 0 ft / 0 m 36.40011˚ 28.06533˚ 266 nm 847 nm 188° / 187° PARADISI VOR-DME
O LGRP APT - 0 ft / 0 m 36.40034˚ 28.06887˚ 0 nm 847 nm 85° / 85° -

Altitude Profile

Advertisement - Login to hide

Weather


0- 5 10 15 20 25 30 35+ Temperature / ° C

Clouds and Precipitation
Forecast for 2017-12-13 18:00 UTC. Updated 4 minutes ago

Ground ~20,000 ft ~40,000 ft Winds

UKBB

Details ICAO UKBB (KBP)
Name Boryspil
Region Ukraine
Timezone Europe/Kiev (UTC+2.0)
Stats Elevation 421 ft / 128 m (AMSL)
Location 50.339472° 30.892903°
Runways 2
Magnetic Variation 7.669° E

METAR

UKBB 131700Z 36004MPS 7000 -RA SCT004 OVC008 01/01 Q1014 R88/290050 NOSIG

Decode

TAF

TAF TAF UKBB 131105Z 1312/1412 01006G11MPS 4000 BR OVC007 TEMPO 1312/1316 1000 -SHSNRA BR BKN003 SCT015CB BECMG 1316/1317 2000 -SN BR OVC005 PROB40 TEMPO 1317/1319 -FZRASN TEMPO 1319/1403 0600 +SHSN BKN002 BKN014CB BECMG 1406/1408 26003G08MPS 6000 NSW BKN010 TX03/1312Z TNM01/1405Z

Decode

Departure Runways

ID Width Length Bearing (true) Bearing (mag) Surface Threshold Offset Overrun Length
18L 197 ft / 60 m 13,152 ft / 4,009 m 182.72° 175.05° Concrete 0 ft / 0 m 295 ft / 90 m
18R 207 ft / 63 m 11,470 ft / 3,496 m 182.62° 174.95° Concrete 0 ft / 0 m 164 ft / 50 m
36L 207 ft / 63 m 11,470 ft / 3,496 m 2.62° 354.95° Concrete 0 ft / 0 m 164 ft / 50 m
36R 197 ft / 60 m 13,152 ft / 4,009 m 2.72° 355.05° Concrete 0 ft / 0 m 295 ft / 90 m

LGRP

Details ICAO LGRP (RHO)
Name DIAGORAS
Region Greece
Timezone Europe/Athens (UTC+2.0)
Stats Elevation 17 ft / 5 m (AMSL)
Location 36.405420° 28.086193°
Runways 1
Magnetic Variation 4.780° E

METAR

LGRP 131650Z 29010KT 9999 FEW015 17/13 Q1018 NOSIG

Decode

TAF

TAF LGRP 131100Z 1312/1412 29015KT 9999 FEW015 TEMPO 1312/1412 FEW015 SCT050

Decode

Destination Runways

ID Width Length Bearing (true) Bearing (mag) Surface Threshold Offset Overrun Length
07 148 ft / 45 m 10,830 ft / 3,301 m 69.97° 65.19° Asphalt 0 ft / 0 m 0 ft / 0 m
25 148 ft / 45 m 10,830 ft / 3,301 m 249.99° 245.21° Asphalt 0 ft / 0 m 0 ft / 0 m

Approach Navaids

Runway Type Ident Frequency Range Bearing (true) Bearing (mag) Slope Elevation
25 Localiser IRDS 110.30 MHz 18 nm / 33 km 250.45° 245.67° - 17 ft / 5 m (AMSL)
25 Glidescope IRDS 110.30 MHz 10 nm / 19 km 249.98° 245.20° 3.00° 17 ft / 5 m (AMSL)